Time;durP1;ratioP1;P1;durP2;ratioP2;P2;SDS_P1;SDS_P2;PMS_P1;PMS_P2;Temp;Humidity;BMP_temperature;BMP_pressure;BME280_temperature;BME280_humidity;BME280_pressure;Samples;Min_cycle;Max_cycle;Signal;HPM_P1;HPM_P2
2021/10/07 00:00:23;;;;;;;10.80;4.10;;;21.00;50.20;;;;;;5139951;23;20028;-69
2021/10/07 00:02:25;;;;;;;9.82;4.20;;;21.00;50.80;;;;;;5140772;23;20024;-69
2021/10/07 00:04:29;;;;;;;7.13;3.47;;;21.00;49.80;;;;;;5139133;23;20013;-71
2021/10/07 00:06:30;;;;;;;;;;;21.10;49.50;;;;;;5137990;23;20032;-70
2021/10/07 00:08:33;;;;;;;7.97;3.60;;;21.10;49.60;;;;;;5139129;23;19903;-69
2021/10/07 00:10:35;;;;;;;7.85;3.50;;;21.10;49.30;;;;;;5104430;23;20112;-69
2021/10/07 00:12:37;;;;;;;6.33;3.43;;;21.10;49.30;;;;;;5141452;23;20021;-69
2021/10/07 00:14:39;;;;;;;11.63;3.35;;;21.10;49.00;;;;;;5141947;23;20018;-71
2021/10/07 00:16:42;;;;;;;8.35;3.25;;;21.10;49.00;;;;;;5107068;23;20048;-71
2021/10/07 00:18:48;;;;;;;5.97;3.15;;;21.20;49.20;;;;;;5141744;23;20429;-75
2021/10/07 00:20:50;;;;;;;7.22;3.08;;;21.20;49.10;;;;;;5140159;23;20042;-77
2021/10/07 00:22:52;;;;;;;6.53;3.10;;;21.20;49.10;;;;;;5142449;23;20017;-73
2021/10/07 00:24:54;;;;;;;6.63;3.22;;;21.20;48.90;;;;;;5141833;23;20583;-73
2021/10/07 00:26:57;;;;;;;6.55;3.00;;;21.30;48.90;;;;;;5141806;23;20051;-70
2021/10/07 00:29:08;;;;;;;6.25;2.55;;;21.30;48.90;;;;;;5140876;23;20012;-70
2021/10/07 00:31:17;;;;;;;4.30;2.65;;;21.30;48.90;;;;;;5141629;23;20171;-71
2021/10/07 00:33:27;;;;;;;6.38;3.25;;;21.40;48.90;;;;;;5142489;23;20018;-71
2021/10/07 00:39:40;;;;;;;4.13;2.17;;;21.40;48.30;;;;;;5140788;23;20393;-71
2021/10/07 00:41:43;;;;;;;5.63;2.90;;;21.50;48.60;;;;;;5137366;23;20027;-68
2021/10/07 00:43:46;;;;;;;6.90;2.42;;;21.50;48.50;;;;;;5137682;23;20021;-72
2021/10/07 00:45:52;;;;;;;8.35;2.75;;;21.50;48.40;;;;;;5140124;23;20020;-72
2021/10/07 00:47:54;;;;;;;4.10;2.50;;;21.50;48.70;;;;;;5141523;23;20027;-71
2021/10/07 00:49:56;;;;;;;5.28;2.50;;;21.60;48.90;;;;;;5139974;23;20020;-73
2021/10/07 00:51:59;;;;;;;5.20;2.70;;;21.60;48.90;;;;;;5143928;23;20016;-70
2021/10/07 00:54:01;;;;;;;4.25;2.38;;;21.60;49.10;;;;;;5143021;23;20020;-70
2021/10/07 00:56:04;;;;;;;7.03;2.30;;;21.60;49.00;;;;;;5143195;23;20017;-70
2021/10/07 00:58:06;;;;;;;4.85;2.40;;;21.70;48.70;;;;;;5145409;23;20254;-71
2021/10/07 01:00:09;;;;;;;8.65;3.00;;;21.70;48.40;;;;;;5141521;23;20094;-72
2021/10/07 01:02:12;;;;;;;6.05;2.50;;;21.70;48.20;;;;;;5145732;23;20016;-70
2021/10/07 01:04:14;;;;;;;4.75;2.00;;;21.70;48.30;;;;;;5135095;23;20212;-68
2021/10/07 01:06:16;;;;;;;6.30;2.42;;;21.80;48.40;;;;;;5143846;23;20028;-70
2021/10/07 01:08:18;;;;;;;4.72;2.28;;;21.80;49.10;;;;;;5145530;23;20013;-73
2021/10/07 01:10:20;;;;;;;6.63;2.25;;;21.80;48.30;;;;;;5144727;23;20364;-70
2021/10/07 01:12:22;;;;;;;4.30;2.40;;;21.80;48.40;;;;;;5144345;23;20110;-74
2021/10/07 01:14:52;;;;;;;5.97;2.47;;;21.80;48.30;;;;;;5146040;23;20615;-69
2021/10/07 01:16:56;;;;;;;5.57;2.00;;;21.90;48.80;;;;;;5148733;23;20024;-70
2021/10/07 01:18:58;;;;;;;4.07;2.25;;;21.90;48.40;;;;;;5109780;23;20013;-70
2021/10/07 01:21:01;;;;;;;5.40;2.25;;;21.90;48.30;;;;;;5142103;23;20016;-72
2021/10/07 01:23:04;;;;;;;4.68;1.90;;;21.90;48.10;;;;;;5147422;23;20013;-72
2021/10/07 01:25:07;;;;;;;5.80;1.80;;;22.00;48.30;;;;;;5146429;23;20349;-74
2021/10/07 01:27:10;;;;;;;7.13;2.30;;;22.00;48.20;;;;;;5147015;23;20025;-72
2021/10/07 01:29:11;;;;;;;;;;;22.00;48.20;;;;;;5108444;23;20120;-72
2021/10/07 01:31:15;;;;;;;4.82;2.30;;;22.00;48.40;;;;;;5143690;23;19904;-71
2021/10/07 01:33:17;;;;;;;8.30;2.40;;;22.00;48.50;;;;;;5144754;23;20021;-69
2021/10/07 01:35:19;;;;;;;4.50;1.92;;;22.00;48.40;;;;;;5141221;23;20044;-72
2021/10/07 01:37:21;;;;;;;6.45;2.00;;;22.00;48.40;;;;;;5143606;23;20022;-75
2021/10/07 01:39:23;;;;;;;10.45;1.70;;;22.10;48.60;;;;;;5140969;23;20017;-73
2021/10/07 01:41:25;;;;;;;5.70;2.00;;;22.10;48.30;;;;;;5143043;23;20020;-70
2021/10/07 01:43:28;;;;;;;5.53;2.00;;;22.10;48.40;;;;;;5141917;23;20331;-70
2021/10/07 01:45:30;;;;;;;5.05;2.55;;;22.10;48.40;;;;;;5106021;23;20021;-70
2021/10/07 01:47:32;;;;;;;4.95;1.40;;;22.20;48.80;;;;;;5141388;23;20052;-75
2021/10/07 01:49:34;;;;;;;4.72;1.80;;;22.20;48.50;;;;;;5140889;23;20016;-69
2021/10/07 01:51:37;;;;;;;4.82;2.42;;;22.20;48.70;;;;;;5141277;23;20103;-72
2021/10/07 01:53:39;;;;;;;2.70;1.75;;;22.20;48.80;;;;;;5142190;23;20019;-70
2021/10/07 01:55:41;;;;;;;4.50;2.03;;;22.20;48.80;;;;;;5143307;23;20304;-73
2021/10/07 01:57:43;;;;;;;10.15;1.92;;;22.20;45.80;;;;;;5144827;23;20369;-73
2021/10/07 01:59:45;;;;;;;12.38;1.88;;;22.30;41.70;;;;;;5142871;23;20048;-70
2021/10/07 02:01:47;;;;;;;3.30;1.38;;;22.30;41.70;;;;;;5140920;23;20017;-71
2021/10/07 02:03:50;;;;;;;2.53;1.10;;;22.40;41.30;;;;;;5139993;23;20020;-76
2021/10/07 02:05:54;;;;;;;3.22;1.50;;;22.40;41.10;;;;;;5141405;23;20032;-73
2021/10/07 02:07:56;;;;;;;3.63;1.52;;;22.50;40.50;;;;;;5140581;23;20096;-77
2021/10/07 02:09:59;;;;;;;7.25;1.60;;;22.50;40.00;;;;;;5140103;23;20031;-72
2021/10/07 02:12:01;;;;;;;14.77;2.78;;;22.60;40.50;;;;;;5107127;23;20009;-74
2021/10/07 02:14:04;;;;;;;8.65;2.03;;;22.60;40.30;;;;;;5141270;23;20016;-80
2021/10/07 02:16:06;;;;;;;9.02;2.00;;;22.70;39.80;;;;;;5142553;23;20486;-75
2021/10/07 02:18:08;;;;;;;4.47;1.65;;;22.70;39.50;;;;;;5140591;23;20043;-78
2021/10/07 02:20:12;;;;;;;3.75;1.27;;;22.80;39.60;;;;;;5142145;23;20084;-83
2021/10/07 02:22:14;;;;;;;8.50;1.77;;;22.90;39.50;;;;;;5137465;23;20043;-79
2021/10/07 02:24:17;;;;;;;3.97;0.98;;;22.90;39.30;;;;;;5135018;23;20018;-77
2021/10/07 02:26:19;;;;;;;3.58;1.50;;;23.00;39.20;;;;;;5139231;23;20028;-74
2021/10/07 02:28:21;;;;;;;2.47;1.05;;;23.00;38.60;;;;;;5142136;23;20083;-74
2021/10/07 02:30:24;;;;;;;9.13;1.75;;;23.10;38.90;;;;;;5141304;23;20043;-79
2021/10/07 02:32:26;;;;;;;4.40;1.17;;;23.10;39.10;;;;;;5139577;23;20016;-72
2021/10/07 02:34:28;;;;;;;3.63;1.60;;;23.20;39.30;;;;;;5140625;23;20013;-76
2021/10/07 02:36:30;;;;;;;5.40;1.67;;;23.20;36.90;;;;;;5143746;23;20016;-80
2021/10/07 02:38:32;;;;;;;5.88;1.50;;;23.40;35.80;;;;;;5140268;23;20020;-73
2021/10/07 02:40:38;;;;;;;3.38;1.40;;;23.60;36.80;;;;;;5134940;23;20028;-71
2021/10/07 02:42:40;;;;;;;4.20;1.40;;;23.60;37.50;;;;;;5142155;23;20706;-73
2021/10/07 02:44:42;;;;;;;3.00;1.10;;;23.60;36.30;;;;;;5142222;23;20016;-75
2021/10/07 02:46:44;;;;;;;2.55;1.30;;;23.70;36.20;;;;;;5144040;23;20032;-72
2021/10/07 02:48:47;;;;;;;2.83;1.20;;;23.90;34.30;;;;;;5142872;23;20047;-72
2021/10/07 02:50:49;;;;;;;4.72;1.52;;;23.90;34.40;;;;;;5131307;23;20043;-76
2021/10/07 02:52:51;;;;;;;3.78;1.48;;;24.00;34.80;;;;;;5143041;23;20032;-73
2021/10/07 02:54:53;;;;;;;3.40;1.20;;;24.10;34.40;;;;;;5140302;23;20079;-80
2021/10/07 02:56:55;;;;;;;3.20;1.20;;;24.10;34.60;;;;;;5142454;23;20312;-72
2021/10/07 02:58:57;;;;;;;3.22;1.40;;;24.20;34.20;;;;;;5142882;23;20021;-79
2021/10/07 03:01:00;;;;;;;3.58;1.38;;;24.30;33.70;;;;;;5145489;23;20016;-77
2021/10/07 03:03:02;;;;;;;5.43;1.42;;;24.40;33.40;;;;;;5144115;23;20012;-78
2021/10/07 03:05:05;;;;;;;4.63;1.45;;;24.50;34.00;;;;;;5142624;23;20365;-80
2021/10/07 03:07:10;;;;;;;4.88;1.60;;;24.50;33.70;;;;;;5144421;23;20330;-78
2021/10/07 03:09:12;;;;;;;2.35;1.20;;;24.60;33.30;;;;;;5143747;23;20019;-79
2021/10/07 03:11:15;;;;;;;6.13;1.58;;;24.70;32.20;;;;;;5144707;23;20016;-80
2021/10/07 03:13:17;;;;;;;4.15;1.35;;;24.80;32.70;;;;;;5144632;23;20429;-84
2021/10/07 03:15:19;;;;;;;5.57;1.35;;;24.90;31.50;;;;;;5144160;23;20029;-82
2021/10/07 03:17:37;;;;;;;3.65;1.75;;;25.00;32.00;;;;;;5145833;23;20016;-83
2021/10/07 03:19:40;;;;;;;5.13;1.60;;;25.00;32.90;;;;;;5121785;23;20044;-78
2021/10/07 03:21:42;;;;;;;5.00;1.70;;;25.00;32.70;;;;;;5155754;23;20020;-77
2021/10/07 03:23:44;;;;;;;3.10;1.60;;;25.00;32.90;;;;;;5149561;23;20024;-79
2021/10/07 03:25:47;;;;;;;3.42;1.48;;;25.00;33.00;;;;;;5141218;23;20039;-82
2021/10/07 03:27:49;;;;;;;4.53;1.30;;;25.00;33.20;;;;;;5136713;23;20413;-79
2021/10/07 03:29:51;;;;;;;3.88;1.75;;;25.00;33.30;;;;;;5143978;23;20175;-77
2021/10/07 03:31:53;;;;;;;4.15;1.40;;;25.00;33.40;;;;;;5134135;23;20492;-79
2021/10/07 03:33:55;;;;;;;5.17;1.80;;;25.10;33.70;;;;;;5106759;23;20176;-76
2021/10/07 03:35:58;;;;;;;3.45;1.40;;;25.10;34.10;;;;;;5142677;23;20253;-74
2021/10/07 03:38:01;;;;;;;3.03;1.38;;;25.10;34.50;;;;;;5133342;23;20400;-74
2021/10/07 03:40:05;;;;;;;4.00;1.38;;;25.10;34.90;;;;;;5142251;23;20389;-74
2021/10/07 03:42:07;;;;;;;3.20;1.05;;;25.10;35.80;;;;;;5118858;23;20527;-77
2021/10/07 03:44:09;;;;;;;3.80;1.60;;;25.10;36.20;;;;;;5144400;23;20501;-73
2021/10/07 03:46:11;;;;;;;3.25;1.30;;;25.10;36.70;;;;;;5111693;23;20028;-80
2021/10/07 03:48:13;;;;;;;3.35;1.35;;;25.20;37.00;;;;;;5145591;23;20075;-76
2021/10/07 03:50:16;;;;;;;1.85;1.15;;;25.20;37.30;;;;;;5144371;23;20329;-77
2021/10/07 03:52:18;;;;;;;4.70;1.20;;;25.20;37.60;;;;;;5145026;23;20023;-74
2021/10/07 03:54:20;;;;;;;4.07;1.50;;;25.20;37.90;;;;;;5144526;23;20511;-75
2021/10/07 03:56:22;;;;;;;4.13;1.23;;;25.30;38.30;;;;;;5145686;23;20020;-77
2021/10/07 03:58:24;;;;;;;2.95;1.50;;;25.30;38.40;;;;;;5144141;23;20341;-72
2021/10/07 04:00:27;;;;;;;1.90;1.08;;;25.40;38.50;;;;;;5144224;23;20017;-73
2021/10/07 04:02:29;;;;;;;4.85;1.40;;;25.40;38.70;;;;;;5141927;23;20020;-83
2021/10/07 04:04:31;;;;;;;3.05;1.52;;;25.40;38.70;;;;;;5143607;23;20013;-78
2021/10/07 04:06:34;;;;;;;4.70;1.30;;;25.50;39.00;;;;;;5142235;23;20067;-75
2021/10/07 04:08:36;;;;;;;4.28;1.90;;;25.50;39.00;;;;;;5142779;23;20451;-76
2021/10/07 04:10:38;;;;;;;5.43;1.50;;;25.60;39.10;;;;;;5109071;23;20075;-79
2021/10/07 04:12:40;;;;;;;5.18;1.33;;;25.60;39.10;;;;;;5142167;23;20418;-68
2021/10/07 04:14:43;;;;;;;6.50;1.50;;;25.60;39.10;;;;;;5142914;23;20027;-65
2021/10/07 04:16:45;;;;;;;4.22;1.55;;;25.70;39.20;;;;;;5144627;23;20039;-68
2021/10/07 04:18:47;;;;;;;4.43;1.30;;;25.80;39.50;;;;;;5143148;23;20024;-65
2021/10/07 04:20:51;;;;;;;3.65;1.58;;;25.80;39.60;;;;;;5133379;23;20258;-68
2021/10/07 04:22:53;;;;;;;1.98;1.10;;;25.90;40.40;;;;;;5142937;23;20039;-67
2021/10/07 04:24:56;;;;;;;3.08;1.30;;;25.90;39.80;;;;;;5132635;23;20019;-68
2021/10/07 04:26:58;;;;;;;2.25;0.95;;;26.00;39.90;;;;;;5133541;23;20025;-71
2021/10/07 04:29:01;;;;;;;2.50;1.30;;;26.00;40.00;;;;;;5143215;23;20340;-69
2021/10/07 04:31:03;;;;;;;;;;;26.10;40.00;;;;;;5143100;23;20032;-68
2021/10/07 04:33:09;;;;;;;2.72;1.10;;;26.10;39.80;;;;;;5143170;23;19907;-76
2021/10/07 04:35:11;;;;;;;2.72;1.20;;;26.20;39.80;;;;;;5143962;23;20087;-73
2021/10/07 04:37:13;;;;;;;5.20;1.23;;;26.20;39.70;;;;;;5144067;23;20051;-74
2021/10/07 04:39:15;;;;;;;3.03;1.58;;;26.30;39.70;;;;;;5139311;23;20074;-75
2021/10/07 04:41:18;;;;;;;3.65;1.63;;;26.30;39.50;;;;;;5141520;23;20428;-74
2021/10/07 04:43:20;;;;;;;5.13;1.27;;;26.40;39.40;;;;;;5143977;23;20021;-75
2021/10/07 04:45:22;;;;;;;4.80;1.60;;;26.40;39.80;;;;;;5142307;23;20708;-76
2021/10/07 04:47:25;;;;;;;2.70;1.30;;;26.50;39.80;;;;;;5109095;23;20017;-74
2021/10/07 04:49:27;;;;;;;3.90;1.33;;;26.50;40.00;;;;;;5142618;23;20251;-77
2021/10/07 04:51:29;;;;;;;4.40;1.30;;;26.60;40.00;;;;;;5144075;23;20028;-73
2021/10/07 04:53:31;;;;;;;5.05;1.50;;;26.60;40.00;;;;;;5107609;23;20013;-69
2021/10/07 04:55:33;;;;;;;3.85;1.40;;;26.70;40.00;;;;;;5143338;23;20031;-68
2021/10/07 04:57:36;;;;;;;2.95;1.50;;;26.80;40.10;;;;;;5143747;23;20024;-69
2021/10/07 04:59:38;;;;;;;2.25;1.52;;;26.80;40.20;;;;;;5141392;23;20083;-68
2021/10/07 05:01:40;;;;;;;5.37;1.47;;;26.90;40.20;;;;;;5142653;23;20065;-67
2021/10/07 05:03:42;;;;;;;2.70;1.40;;;27.00;40.30;;;;;;5142539;23;20535;-65
2021/10/07 05:05:45;;;;;;;5.47;1.67;;;27.00;40.70;;;;;;5142677;23;20182;-68
2021/10/07 05:07:47;;;;;;;2.65;1.10;;;27.10;40.80;;;;;;5142036;23;20037;-69
2021/10/07 05:09:50;;;;;;;3.72;1.20;;;27.20;40.40;;;;;;5145315;23;20042;-71
2021/10/07 05:11:52;;;;;;;3.90;1.35;;;27.20;40.30;;;;;;5145947;23;20012;-67
2021/10/07 05:13:54;;;;;;;2.20;1.13;;;27.10;40.40;;;;;;5146046;23;20023;-70
2021/10/07 05:15:56;;;;;;;4.00;1.35;;;27.10;40.90;;;;;;5144211;23;20012;-66
2021/10/07 05:17:58;;;;;;;4.00;1.30;;;27.10;41.10;;;;;;5110475;23;20017;-68
2021/10/07 05:20:00;;;;;;;2.83;1.23;;;27.00;41.20;;;;;;5146173;23;20019;-68
2021/10/07 05:22:03;;;;;;;2.35;1.23;;;27.00;41.50;;;;;;5146641;23;20245;-68
2021/10/07 05:24:05;;;;;;;3.50;1.20;;;27.10;41.60;;;;;;5145865;23;20091;-67
2021/10/07 05:26:07;;;;;;;2.30;1.30;;;27.10;41.80;;;;;;5144758;23;20063;-67
2021/10/07 05:28:09;;;;;;;1.90;1.20;;;27.10;41.80;;;;;;5143428;23;20053;-69
2021/10/07 05:30:12;;;;;;;4.75;1.30;;;27.10;41.80;;;;;;5144482;23;20043;-68
2021/10/07 05:32:14;;;;;;;2.67;1.38;;;27.10;41.90;;;;;;5143957;23;20095;-69
2021/10/07 05:34:16;;;;;;;4.13;1.50;;;27.20;41.90;;;;;;5146809;23;20024;-67
2021/10/07 05:36:19;;;;;;;4.60;1.27;;;27.20;42.10;;;;;;5144303;23;20020;-68
2021/10/07 05:38:21;;;;;;;7.47;1.63;;;27.20;42.10;;;;;;5144377;23;20036;-67
2021/10/07 05:40:23;;;;;;;4.33;1.40;;;27.30;42.30;;;;;;5145120;23;20019;-67
2021/10/07 05:42:25;;;;;;;3.80;1.48;;;27.30;42.20;;;;;;5147644;23;20040;-66
2021/10/07 05:44:27;;;;;;;4.15;1.20;;;27.40;42.20;;;;;;5145069;23;20091;-66
2021/10/07 05:46:30;;;;;;;4.07;1.70;;;27.40;42.40;;;;;;5144049;23;20027;-66
2021/10/07 05:48:34;;;;;;;2.58;1.63;;;27.50;42.50;;;;;;5142816;23;20436;-67
2021/10/07 05:50:36;;;;;;;3.60;1.35;;;27.50;42.30;;;;;;5142067;23;20061;-67
2021/10/07 05:52:39;;;;;;;2.72;1.42;;;27.50;42.00;;;;;;5142711;23;20087;-66
2021/10/07 05:54:41;;;;;;;3.28;1.30;;;27.50;42.20;;;;;;5106631;23;20052;-68
2021/10/07 05:56:43;;;;;;;5.90;1.37;;;27.60;42.10;;;;;;5141527;23;20095;-69
2021/10/07 05:58:45;;;;;;;3.85;1.50;;;27.60;42.30;;;;;;5141667;23;20021;-69
2021/10/07 06:00:47;;;;;;;1.83;1.27;;;27.60;41.90;;;;;;5140213;23;20320;-67
2021/10/07 06:02:50;;;;;;;4.13;1.70;;;27.60;41.70;;;;;;5141696;23;20016;-68
2021/10/07 06:04:52;;;;;;;5.28;1.50;;;27.60;42.10;;;;;;5144421;23;20070;-67
2021/10/07 06:06:54;;;;;;;4.07;1.25;;;27.60;41.90;;;;;;5143188;23;20032;-69
2021/10/07 06:08:56;;;;;;;3.60;1.57;;;27.60;42.00;;;;;;5142439;23;20020;-67
2021/10/07 06:10:58;;;;;;;3.83;1.48;;;27.50;42.10;;;;;;5135165;23;20013;-66
2021/10/07 06:13:01;;;;;;;5.22;1.63;;;27.50;42.00;;;;;;5144069;23;20055;-66
2021/10/07 06:15:04;;;;;;;6.20;1.80;;;27.50;42.00;;;;;;5142434;23;20075;-66
2021/10/07 06:17:09;;;;;;;5.28;1.70;;;27.50;42.20;;;;;;5143843;23;20116;-68
2021/10/07 06:19:15;;;;;;;4.22;1.98;;;27.50;42.20;;;;;;5142491;23;20012;-67
2021/10/07 06:21:18;;;;;;;6.40;2.20;;;27.50;42.20;;;;;;5134891;23;20020;-67
2021/10/07 06:23:20;;;;;;;4.47;1.90;;;27.50;42.40;;;;;;5142438;23;20020;-67
2021/10/07 06:25:23;;;;;;;6.10;2.05;;;27.50;42.60;;;;;;5143301;23;20023;-69
2021/10/07 06:27:25;;;;;;;6.80;2.50;;;27.50;42.70;;;;;;5142024;23;20021;-67
2021/10/07 06:29:27;;;;;;;8.65;2.20;;;27.40;42.70;;;;;;5140456;23;20016;-67
2021/10/07 06:31:29;;;;;;;6.43;2.30;;;27.50;42.90;;;;;;5139525;23;20103;-66
2021/10/07 06:33:32;;;;;;;6.57;2.22;;;27.50;43.00;;;;;;5139211;23;20023;-66
2021/10/07 06:35:34;;;;;;;7.10;2.30;;;27.50;43.10;;;;;;5141589;23;20079;-67
2021/10/07 06:37:36;;;;;;;9.02;2.50;;;27.50;43.30;;;;;;5141399;23;20354;-66
2021/10/07 06:39:38;;;;;;;9.52;2.63;;;27.50;43.60;;;;;;5139616;23;20060;-66
2021/10/07 06:41:40;;;;;;;7.97;2.40;;;27.50;43.40;;;;;;5140662;23;20020;-68
2021/10/07 06:43:43;;;;;;;8.73;2.93;;;27.50;43.90;;;;;;5138820;23;20020;-65
2021/10/07 06:45:45;;;;;;;10.90;2.90;;;27.50;43.80;;;;;;5140097;23;20312;-67
2021/10/07 06:47:47;;;;;;;7.27;2.80;;;27.50;43.80;;;;;;5139688;23;20240;-67
2021/10/07 06:49:49;;;;;;;9.35;2.78;;;27.50;44.10;;;;;;5139489;23;20020;-65
2021/10/07 06:51:51;;;;;;;11.60;3.78;;;27.50;44.10;;;;;;5139052;23;20013;-65
2021/10/07 06:53:58;;;;;;;9.45;3.17;;;27.50;43.90;;;;;;5138814;23;20047;-66
2021/10/07 06:56:00;;;;;;;7.70;2.70;;;27.50;44.00;;;;;;5139217;23;20013;-67
2021/10/07 06:58:02;;;;;;;9.77;3.40;;;27.50;44.00;;;;;;5139210;23;20085;-66
2021/10/07 07:00:08;;;;;;;7.40;2.47;;;27.50;44.20;;;;;;5139255;23;20023;-66
2021/10/07 07:02:10;;;;;;;8.88;2.85;;;27.40;44.10;;;;;;5139888;23;20393;-66
2021/10/07 07:04:16;;;;;;;9.15;3.10;;;27.40;44.40;;;;;;5140351;23;20115;-71
2021/10/07 07:06:19;;;;;;;8.48;2.72;;;27.40;44.30;;;;;;5132833;23;20028;-68
2021/10/07 07:08:21;;;;;;;7.15;2.42;;;27.40;44.40;;;;;;5142033;23;20024;-68
2021/10/07 07:10:23;;;;;;;6.20;2.50;;;27.40;44.40;;;;;;5140177;23;20048;-68
2021/10/07 07:12:26;;;;;;;10.67;2.70;;;27.40;44.40;;;;;;5103047;23;20012;-69
2021/10/07 07:14:28;;;;;;;10.43;3.17;;;27.40;44.40;;;;;;5138672;23;20456;-68
2021/10/07 07:16:31;;;;;;;9.27;2.63;;;27.30;44.40;;;;;;5137909;23;20036;-70
2021/10/07 07:18:33;;;;;;;7.47;2.83;;;27.30;44.40;;;;;;5140421;23;20095;-68
2021/10/07 07:20:35;;;;;;;9.77;3.10;;;27.30;44.60;;;;;;5140723;23;20404;-67
2021/10/07 07:22:38;;;;;;;9.32;3.13;;;27.30;44.60;;;;;;5138202;23;20502;-69
2021/10/07 07:24:40;;;;;;;;;;;27.20;44.50;;;;;;5139171;23;20376;-66
2021/10/07 07:26:42;;;;;;;10.23;3.33;;;27.20;44.50;;;;;;5141976;23;20002;-67
2021/10/07 07:28:44;;;;;;;8.77;3.03;;;27.20;44.50;;;;;;5143747;23;20355;-68
2021/10/07 07:30:49;;;;;;;9.20;3.08;;;27.10;44.50;;;;;;5144311;23;20086;-70
2021/10/07 07:32:51;;;;;;;9.55;2.95;;;27.10;44.50;;;;;;5145576;23;20040;-69
2021/10/07 07:34:53;;;;;;;7.57;2.85;;;27.10;44.40;;;;;;5142195;23;20347;-66
2021/10/07 07:36:56;;;;;;;8.00;2.63;;;27.00;44.30;;;;;;5109925;23;20053;-65
2021/10/07 07:38:59;;;;;;;9.83;3.30;;;27.00;44.40;;;;;;5144878;23;20031;-63
2021/10/07 07:41:01;;;;;;;10.07;3.33;;;27.00;44.40;;;;;;5144169;23;20008;-65
2021/10/07 07:43:03;;;;;;;9.43;3.78;;;26.90;44.30;;;;;;5144007;23;20399;-64
2021/10/07 07:45:08;;;;;;;11.47;3.00;;;26.90;44.30;;;;;;5139525;23;20459;-65
2021/10/07 07:47:10;;;;;;;9.13;3.20;;;26.90;44.30;;;;;;5142562;23;20751;-64
2021/10/07 07:49:12;;;;;;;8.48;3.42;;;26.80;44.00;;;;;;5143302;23;20088;-66
2021/10/07 07:51:14;;;;;;;11.70;3.67;;;26.80;44.00;;;;;;5143013;23;20016;-66
2021/10/07 07:53:16;;;;;;;11.38;3.22;;;26.70;44.10;;;;;;5132055;23;20718;-65
2021/10/07 07:55:19;;;;;;;8.67;3.17;;;26.70;44.30;;;;;;5105650;23;20424;-64
2021/10/07 07:57:21;;;;;;;9.45;3.50;;;26.60;44.40;;;;;;5131518;23;20016;-64
2021/10/07 07:59:24;;;;;;;8.20;3.10;;;26.60;44.30;;;;;;5105485;23;20606;-64
2021/10/07 08:01:26;;;;;;;9.53;3.00;;;26.60;44.60;;;;;;5140001;23;20013;-64
2021/10/07 08:03:29;;;;;;;10.27;3.30;;;26.60;44.80;;;;;;5139857;23;20102;-64
2021/10/07 08:05:32;;;;;;;11.73;3.20;;;26.50;44.80;;;;;;5139069;23;20476;-65
2021/10/07 08:07:34;;;;;;;8.85;3.17;;;26.50;44.90;;;;;;5138612;23;20460;-66
2021/10/07 08:09:43;;;;;;;9.63;3.33;;;26.50;45.60;;;;;;5141078;23;20012;-65
2021/10/07 08:11:46;;;;;;;9.80;3.22;;;26.50;45.10;;;;;;5130252;23;20102;-64
2021/10/07 08:13:49;;;;;;;9.43;3.13;;;26.50;45.30;;;;;;5139225;23;20013;-65
2021/10/07 08:15:51;;;;;;;10.52;3.50;;;26.40;45.20;;;;;;5139810;23;20023;-64
2021/10/07 08:17:54;;;;;;;12.85;3.17;;;26.40;45.30;;;;;;5138537;23;20016;-66
2021/10/07 08:19:56;;;;;;;12.13;3.28;;;26.40;45.50;;;;;;5107351;23;20263;-65
2021/10/07 08:21:58;;;;;;;11.73;3.47;;;26.40;45.50;;;;;;5143901;23;20111;-64
2021/10/07 08:24:05;;;;;;;15.13;3.92;;;26.30;45.70;;;;;;5143100;23;20016;-66
2021/10/07 08:26:08;;;;;;;9.63;3.33;;;26.30;46.00;;;;;;5133621;23;20031;-65
2021/10/07 08:28:10;;;;;;;8.60;2.93;;;26.30;46.10;;;;;;5141748;23;20610;-67
2021/10/07 08:30:14;;;;;;;10.60;3.30;;;26.30;46.20;;;;;;5141998;23;20015;-65
2021/10/07 08:32:16;;;;;;;8.32;3.03;;;26.30;46.30;;;;;;5142456;23;20094;-66
2021/10/07 08:34:18;;;;;;;11.07;3.92;;;26.30;46.20;;;;;;5142796;23;20024;-65
2021/10/07 08:36:21;;;;;;;6.68;3.20;;;26.30;46.90;;;;;;5142188;23;20348;-66
2021/10/07 08:38:26;;;;;;;9.05;2.88;;;26.20;46.40;;;;;;5141816;23;20020;-65
2021/10/07 08:40:28;;;;;;;11.05;3.70;;;26.20;46.50;;;;;;5140784;23;20096;-65
2021/10/07 08:42:31;;;;;;;8.77;3.50;;;26.20;46.50;;;;;;5140974;23;20040;-65
2021/10/07 08:44:33;;;;;;;12.05;3.65;;;26.20;46.50;;;;;;5142016;23;20070;-64
2021/10/07 08:46:35;;;;;;;10.07;3.33;;;26.20;46.70;;;;;;5141718;23;20464;-65
2021/10/07 08:48:38;;;;;;;8.27;2.83;;;26.20;46.70;;;;;;5142680;23;20013;-64
2021/10/07 08:50:40;;;;;;;7.72;3.00;;;26.20;46.80;;;;;;5116019;23;20575;-65
2021/10/07 08:52:43;;;;;;;7.90;2.63;;;26.10;46.70;;;;;;5140846;23;20035;-65
2021/10/07 08:54:45;;;;;;;9.83;3.07;;;26.10;46.70;;;;;;5142488;23;20016;-65
2021/10/07 08:56:49;;;;;;;11.93;3.05;;;26.10;46.70;;;;;;5141032;23;20019;-67
2021/10/07 08:58:51;;;;;;;8.02;2.45;;;26.10;46.70;;;;;;5143851;23;20063;-66
2021/10/07 09:00:53;;;;;;;11.00;2.55;;;26.10;46.80;;;;;;5142916;23;20019;-67
2021/10/07 09:02:56;;;;;;;10.32;3.00;;;26.10;46.80;;;;;;5108124;23;20147;-65
2021/10/07 09:05:12;;;;;;;9.23;3.08;;;26.10;46.80;;;;;;5144239;23;20348;-67
2021/10/07 09:07:14;;;;;;;7.40;2.70;;;26.00;46.70;;;;;;5143545;23;20021;-66
2021/10/07 09:09:17;;;;;;;8.00;3.27;;;26.00;46.80;;;;;;5143766;23;20016;-65
2021/10/07 09:11:30;;;;;;;7.80;2.92;;;26.00;46.90;;;;;;5144455;23;20741;-65
2021/10/07 09:13:32;;;;;;;9.55;2.85;;;26.00;46.90;;;;;;5142982;23;20020;-65
2021/10/07 09:15:34;;;;;;;7.72;2.60;;;26.00;47.70;;;;;;5139970;23;20012;-67
2021/10/07 09:17:37;;;;;;;8.98;2.95;;;26.00;47.20;;;;;;5140658;23;20017;-67
2021/10/07 09:19:45;;;;;;;8.55;2.80;;;25.90;47.10;;;;;;5127966;23;20023;-67
2021/10/07 09:21:50;;;;;;;12.73;2.83;;;25.90;47.10;;;;;;5137402;23;20125;-66
2021/10/07 09:23:52;;;;;;;7.72;2.90;;;25.90;47.00;;;;;;5137529;23;20012;-67
2021/10/07 09:26:05;;;;;;;9.65;3.30;;;25.90;47.10;;;;;;5137713;23;20024;-66
2021/10/07 09:28:08;;;;;;;6.97;2.50;;;25.90;47.20;;;;;;5130565;23;20169;-68
2021/10/07 09:30:12;;;;;;;7.13;2.33;;;25.90;47.20;;;;;;5139325;23;20023;-66
2021/10/07 09:32:22;;;;;;;9.02;3.00;;;25.80;47.30;;;;;;5137946;23;20186;-65
2021/10/07 09:34:38;;;;;;;7.35;2.80;;;25.80;47.30;;;;;;5138782;23;20035;-67
2021/10/07 09:36:40;;;;;;;8.02;2.90;;;25.80;47.30;;;;;;5140463;23;20120;-66
2021/10/07 09:38:44;;;;;;;19.88;3.35;;;25.80;47.30;;;;;;5140186;23;20036;-63
2021/10/07 09:40:46;;;;;;;7.40;2.55;;;25.80;47.30;;;;;;5140129;23;20158;-66
2021/10/07 09:42:55;;;;;;;9.15;2.95;;;25.80;47.40;;;;;;5140168;23;20034;-66
2021/10/07 09:45:05;;;;;;;8.68;2.33;;;25.80;47.40;;;;;;5142158;23;20012;-67
2021/10/07 09:47:07;;;;;;;7.43;2.72;;;25.70;47.30;;;;;;5143234;23;20025;-65
2021/10/07 09:49:12;;;;;;;10.27;2.45;;;25.70;47.40;;;;;;5142647;23;20016;-68
2021/10/07 09:51:15;;;;;;;10.80;3.10;;;25.70;47.50;;;;;;5142709;23;20013;-65
2021/10/07 09:53:18;;;;;;;7.93;2.38;;;25.70;47.60;;;;;;5142085;23;20021;-66
2021/10/07 09:55:23;;;;;;;7.15;2.55;;;25.70;47.70;;;;;;5132695;23;20016;-67
2021/10/07 09:57:26;;;;;;;7.85;2.63;;;25.70;47.70;;;;;;5141847;23;20127;-67
2021/10/07 09:59:34;;;;;;;6.78;2.55;;;25.70;47.70;;;;;;5143817;23;20122;-65
2021/10/07 10:01:40;;;;;;;7.93;2.83;;;25.70;47.70;;;;;;5144218;23;20478;-68
2021/10/07 10:03:42;;;;;;;7.43;2.45;;;25.60;47.60;;;;;;5143061;23;20008;-64
2021/10/07 10:05:46;;;;;;;9.30;2.40;;;25.60;47.70;;;;;;5143938;23;20024;-66
2021/10/07 10:07:49;;;;;;;7.78;2.85;;;25.60;47.70;;;;;;5143359;23;20074;-66
2021/10/07 10:09:51;;;;;;;5.72;2.35;;;25.60;47.70;;;;;;5144159;23;20075;-66
2021/10/07 10:11:54;;;;;;;6.50;2.63;;;25.60;47.80;;;;;;5145160;23;20024;-66
2021/10/07 10:13:56;;;;;;;11.25;2.58;;;25.60;47.80;;;;;;5143647;23;20020;-65
2021/10/07 10:15:59;;;;;;;6.33;2.83;;;25.50;47.80;;;;;;5142448;23;20016;-66
2021/10/07 10:18:06;;;;;;;7.90;3.00;;;25.50;47.80;;;;;;5142119;23;20272;-66
2021/10/07 10:20:26;;;;;;;5.65;1.92;;;25.50;47.80;;;;;;5142463;23;20328;-66
2021/10/07 10:22:30;;;;;;;4.95;2.25;;;25.50;47.90;;;;;;5139803;23;20014;-66
2021/10/07 10:24:33;;;;;;;6.80;2.40;;;25.50;48.00;;;;;;5139015;23;20107;-66
2021/10/07 10:26:39;;;;;;;6.70;2.60;;;25.50;47.90;;;;;;5138637;23;20028;-67
2021/10/07 10:28:42;;;;;;;7.20;2.65;;;25.40;47.80;;;;;;5137981;23;20042;-67
2021/10/07 10:30:46;;;;;;;5.63;2.40;;;25.40;47.80;;;;;;5137894;23;20112;-67
2021/10/07 10:32:48;;;;;;;7.40;2.72;;;25.40;48.00;;;;;;5138733;23;20277;-69
2021/10/07 10:34:50;;;;;;;6.50;1.88;;;25.40;48.00;;;;;;5140297;23;20058;-66
2021/10/07 10:37:01;;;;;;;5.87;2.73;;;25.40;48.00;;;;;;5138810;23;20420;-65
2021/10/07 10:39:18;;;;;;;5.82;2.10;;;25.40;48.00;;;;;;5138619;23;20016;-66
2021/10/07 10:41:20;;;;;;;6.63;2.42;;;25.40;47.60;;;;;;5140919;23;20021;-80
2021/10/07 10:43:32;;;;;;;6.85;2.67;;;25.40;46.30;;;;;;5141538;23;20016;-76